Time;durP1;ratioP1;P1;durP2;ratioP2;P2;SDS_P1;SDS_P2;PMS_P1;PMS_P2;Temp;Humidity;BMP_temperature;BMP_pressure;BME280_temperature;BME280_humidity;BME280_pressure;Samples;Min_cycle;Max_cycle;Signal;HPM_P1;HPM_P2
2021/05/29 00:02:29;;;;;;;4.90;2.80;;;;;;;;;;6235448;23;20004;-83
2021/05/29 00:04:55;;;;;;;3.92;3.13;;;;;;;;;;6234721;23;20064;-83
2021/05/29 00:07:21;;;;;;;5.05;3.13;;;;;;;;;;6233785;23;20042;-83
2021/05/29 00:09:46;;;;;;;6.03;3.40;;;;;;;;;;6232131;23;20008;-82
2021/05/29 00:12:12;;;;;;;4.93;2.83;;;;;;;;;;6209298;23;19997;-83
2021/05/29 00:14:40;;;;;;;4.82;3.10;;;;;;;;;;6234848;23;20075;-83
2021/05/29 00:17:09;;;;;;;6.47;2.95;;;;;;;;;;6235088;23;20000;-83
2021/05/29 00:19:40;;;;;;;6.82;3.30;;;;;;;;;;6237444;23;20044;-83
2021/05/29 00:22:07;;;;;;;;;;;;;;;;;;6213420;23;20000;-83
2021/05/29 00:24:36;;;;;;;3.58;2.78;;;;;;;;;;6236097;23;19951;-83
2021/05/29 00:27:02;;;;;;;3.88;2.70;;;;;;;;;;6235751;23;20000;-82
2021/05/29 00:29:30;;;;;;;4.85;3.00;;;;;;;;;;6234692;23;20016;-83
2021/05/29 00:31:56;;;;;;;3.65;2.63;;;;;;;;;;6235934;23;19996;-83
2021/05/29 00:34:22;;;;;;;4.63;2.90;;;;;;;;;;6210453;23;20000;-83
2021/05/29 00:37:13;;;;;;;5.78;2.95;;;;;;;;;;6210493;23;20028;-83
2021/05/29 00:39:39;;;;;;;4.50;2.80;;;;;;;;;;6209798;23;20007;-83
2021/05/29 00:42:05;;;;;;;4.05;2.80;;;;;;;;;;6237239;23;19997;-83
2021/05/29 00:44:50;;;;;;;2.80;2.40;;;;;;;;;;6211145;23;20052;-83
2021/05/29 00:47:20;;;;;;;5.20;2.95;;;;;;;;;;6235549;23;19997;-83
2021/05/29 00:49:49;;;;;;;4.65;2.55;;;;;;;;;;6209522;23;20036;-83
2021/05/29 00:52:16;;;;;;;4.80;2.63;;;;;;;;;;6236793;23;20004;-83
2021/05/29 00:54:43;;;;;;;3.80;2.50;;;;;;;;;;6236188;23;20000;-83
2021/05/29 00:57:13;;;;;;;5.18;2.92;;;;;;;;;;6209516;23;20061;-83
2021/05/29 00:59:42;;;;;;;5.60;3.10;;;;;;;;;;6209742;23;20001;-83
2021/05/29 01:02:11;;;;;;;4.03;2.70;;;;;;;;;;6234585;23;20339;-83
2021/05/29 01:04:37;;;;;;;3.92;2.85;;;;;;;;;;6235312;23;20013;-83
2021/05/29 01:07:07;;;;;;;6.35;2.80;;;;;;;;;;6234852;23;20451;-83
2021/05/29 01:09:33;;;;;;;5.72;2.80;;;;;;;;;;6233747;23;20004;-83
2021/05/29 01:11:59;;;;;;;5.28;2.90;;;;;;;;;;6207412;23;20011;-83
2021/05/29 01:14:25;;;;;;;6.40;3.00;;;;;;;;;;6234315;23;19996;-83
2021/05/29 01:16:55;;;;;;;7.15;3.45;;;;;;;;;;6233203;23;19992;-83
2021/05/29 01:19:21;;;;;;;6.97;2.83;;;;;;;;;;6233672;23;20004;-83
2021/05/29 01:21:47;;;;;;;4.18;3.00;;;;;;;;;;6231620;23;19997;-82
2021/05/29 01:24:12;;;;;;;6.20;2.90;;;;;;;;;;6231916;23;19997;-82
2021/05/29 01:26:38;;;;;;;4.35;3.13;;;;;;;;;;6233094;23;20001;-82
2021/05/29 01:29:04;;;;;;;4.72;2.75;;;;;;;;;;6232335;23;20016;-83
2021/05/29 01:31:31;;;;;;;5.65;3.30;;;;;;;;;;6232746;23;20044;-83
2021/05/29 01:33:58;;;;;;;5.90;2.95;;;;;;;;;;6232385;23;19997;-83
2021/05/29 01:36:26;;;;;;;4.00;2.70;;;;;;;;;;6233213;23;20020;-83
2021/05/29 01:38:53;;;;;;;4.15;2.50;;;;;;;;;;6230608;23;20000;-83
2021/05/29 01:41:21;;;;;;;5.25;2.78;;;;;;;;;;6231566;23;19996;-83
2021/05/29 01:43:49;;;;;;;4.32;2.85;;;;;;;;;;6231417;23;19997;-83
2021/05/29 01:46:16;;;;;;;5.43;3.63;;;;;;;;;;6231093;23;20005;-83
2021/05/29 01:48:45;;;;;;;4.07;2.70;;;;;;;;;;6231119;23;20456;-83
2021/05/29 01:51:14;;;;;;;8.52;3.05;;;;;;;;;;6227797;23;20000;-83
2021/05/29 01:53:39;;;;;;;4.72;2.45;;;;;;;;;;6230004;23;20011;-83
2021/05/29 01:56:06;;;;;;;4.78;3.00;;;;;;;;;;6204030;23;20052;-83
2021/05/29 01:58:32;;;;;;;3.00;2.40;;;;;;;;;;6229332;23;20107;-83
2021/05/29 02:00:58;;;;;;;6.20;2.92;;;;;;;;;;6229452;23;20024;-83
2021/05/29 02:03:23;;;;;;;4.70;2.60;;;;;;;;;;6177989;23;20000;-83
2021/05/29 02:05:49;;;;;;;4.00;2.92;;;;;;;;;;6203809;23;20078;-83
2021/05/29 02:08:16;;;;;;;5.40;3.10;;;;;;;;;;6229250;23;20024;-83
2021/05/29 02:10:45;;;;;;;4.28;2.45;;;;;;;;;;6230435;23;20005;-83
2021/05/29 02:13:13;;;;;;;5.75;2.60;;;;;;;;;;6203554;23;20011;-83
2021/05/29 02:15:41;;;;;;;4.68;2.58;;;;;;;;;;6229791;23;19993;-83
2021/05/29 02:18:09;;;;;;;5.95;2.90;;;;;;;;;;6228800;23;20474;-83
2021/05/29 02:21:06;;;;;;;3.88;2.95;;;;;;;;;;6228611;23;20004;-83
2021/05/29 02:23:37;;;;;;;5.63;2.50;;;;;;;;;;6078863;23;20014;-83
2021/05/29 02:26:06;;;;;;;7.13;2.95;;;;;;;;;;6058719;23;20066;-83
2021/05/29 02:28:34;;;;;;;5.53;3.22;;;;;;;;;;6081576;23;20002;-83
2021/05/29 02:31:04;;;;;;;4.63;3.20;;;;;;;;;;6058416;23;20539;-83
2021/05/29 02:33:29;;;;;;;4.53;2.78;;;;;;;;;;6081370;23;20014;-83
2021/05/29 02:35:59;;;;;;;3.85;2.78;;;;;;;;;;6081271;23;20001;-83
2021/05/29 02:38:28;;;;;;;5.53;2.80;;;;;;;;;;6057584;23;20073;-83
2021/05/29 02:40:55;;;;;;;7.68;2.75;;;;;;;;;;6081631;23;20003;-83
2021/05/29 02:43:20;;;;;;;4.75;2.97;;;;;;;;;;6079254;23;20481;-83
2021/05/29 02:45:46;;;;;;;4.75;2.80;;;;;;;;;;6056685;23;20023;-83
2021/05/29 02:48:14;;;;;;;5.25;2.80;;;;;;;;;;6081908;23;20006;-83
2021/05/29 02:50:41;;;;;;;4.93;2.75;;;;;;;;;;6079931;23;20085;-83
2021/05/29 02:53:09;;;;;;;3.70;2.60;;;;;;;;;;6079747;23;20007;-83
2021/05/29 02:55:35;;;;;;;3.90;2.55;;;;;;;;;;6080621;23;20101;-83
2021/05/29 02:58:01;;;;;;;6.40;2.92;;;;;;;;;;6076680;23;20013;-83
2021/05/29 03:00:30;;;;;;;5.07;2.85;;;;;;;;;;6189546;23;20001;-83
2021/05/29 03:02:56;;;;;;;5.30;2.80;;;;;;;;;;6228018;23;20057;-83
2021/05/29 03:05:22;;;;;;;3.65;3.30;;;;;;;;;;6227458;23;20438;-83
2021/05/29 03:07:50;;;;;;;6.47;2.70;;;;;;;;;;6200303;23;19999;-83
2021/05/29 03:10:16;;;;;;;4.53;2.60;;;;;;;;;;6199011;23;20036;-83
2021/05/29 03:12:43;;;;;;;4.03;2.60;;;;;;;;;;6197121;23;20001;-83
2021/05/29 03:15:14;;;;;;;3.55;2.67;;;;;;;;;;6226535;23;20028;-83
2021/05/29 03:17:41;;;;;;;6.55;2.90;;;;;;;;;;6197676;23;20008;-83
2021/05/29 03:20:09;;;;;;;4.57;2.65;;;;;;;;;;6224966;23;20003;-82
2021/05/29 03:22:35;;;;;;;6.03;2.67;;;;;;;;;;6198019;23;20035;-83
2021/05/29 03:25:00;;;;;;;4.85;3.08;;;;;;;;;;6225483;23;20001;-83
2021/05/29 03:27:26;;;;;;;5.60;2.85;;;;;;;;;;6199694;23;20442;-82
2021/05/29 03:29:52;;;;;;;5.28;2.75;;;;;;;;;;6226528;23;20067;-83
2021/05/29 03:32:17;;;;;;;3.67;3.08;;;;;;;;;;6227192;23;20047;-83
2021/05/29 03:34:44;;;;;;;5.00;2.78;;;;;;;;;;6227581;23;19996;-82
2021/05/29 03:37:09;;;;;;;2.95;2.40;;;;;;;;;;6176698;23;20006;-82
2021/05/29 03:39:35;;;;;;;6.45;3.13;;;;;;;;;;6199923;23;19996;-82
2021/05/29 03:42:01;;;;;;;3.88;2.55;;;;;;;;;;6227327;23;20007;-82
2021/05/29 03:44:26;;;;;;;4.32;2.75;;;;;;;;;;6225666;23;20032;-83
2021/05/29 03:46:51;;;;;;;5.38;3.10;;;;;;;;;;6228354;23;19996;-83
2021/05/29 03:49:19;;;;;;;7.55;2.83;;;;;;;;;;6203893;23;20449;-83
2021/05/29 03:51:44;;;;;;;7.00;3.08;;;;;;;;;;6230276;23;20007;-83
2021/05/29 03:54:10;;;;;;;5.20;2.75;;;;;;;;;;6231332;23;20005;-83
2021/05/29 03:56:36;;;;;;;3.53;3.10;;;;;;;;;;6230941;23;20000;-83
2021/05/29 03:59:03;;;;;;;4.90;2.70;;;;;;;;;;6204797;23;20000;-83
2021/05/29 04:01:29;;;;;;;4.72;3.03;;;;;;;;;;6230208;23;20004;-83
2021/05/29 04:03:55;;;;;;;5.75;2.88;;;;;;;;;;6203794;23;20104;-83
2021/05/29 04:06:23;;;;;;;5.63;3.58;;;;;;;;;;6229483;23;20008;-83
2021/05/29 04:08:49;;;;;;;4.47;3.10;;;;;;;;;;6229265;23;20442;-83
2021/05/29 04:11:14;;;;;;;4.28;2.75;;;;;;;;;;6228941;23;20031;-83
2021/05/29 04:13:40;;;;;;;5.68;2.78;;;;;;;;;;6229770;23;19999;-83
2021/05/29 04:16:05;;;;;;;4.50;3.03;;;;;;;;;;6203482;23;20048;-83
2021/05/29 04:18:31;;;;;;;3.38;2.92;;;;;;;;;;6202411;23;20011;-83
2021/05/29 04:20:56;;;;;;;7.18;2.78;;;;;;;;;;6228796;23;20000;-83
2021/05/29 04:23:22;;;;;;;4.60;2.90;;;;;;;;;;6229626;23;20000;-83
2021/05/29 04:25:47;;;;;;;4.53;3.28;;;;;;;;;;6201933;23;20059;-83
2021/05/29 04:28:13;;;;;;;4.88;2.88;;;;;;;;;;6202744;23;20036;-83
2021/05/29 04:30:39;;;;;;;5.20;2.95;;;;;;;;;;6229256;23;20095;-82
2021/05/29 04:33:05;;;;;;;5.28;3.00;;;;;;;;;;6203567;23;20427;-83
2021/05/29 04:35:30;;;;;;;4.32;3.20;;;;;;;;;;6229865;23;19992;-83
2021/05/29 04:37:55;;;;;;;5.22;3.10;;;;;;;;;;6204772;23;20005;-83
2021/05/29 04:40:24;;;;;;;5.15;3.13;;;;;;;;;;6231727;23;20004;-83
2021/05/29 04:42:50;;;;;;;6.32;3.10;;;;;;;;;;6230983;23;20027;-83
2021/05/29 04:45:16;;;;;;;6.90;3.35;;;;;;;;;;6231351;23;20004;-83
2021/05/29 04:47:42;;;;;;;6.45;3.70;;;;;;;;;;6205220;23;20004;-83
2021/05/29 04:50:10;;;;;;;4.97;3.25;;;;;;;;;;6232008;23;20007;-83
2021/05/29 04:52:36;;;;;;;6.03;2.85;;;;;;;;;;6206917;23;20012;-83
2021/05/29 04:55:03;;;;;;;4.47;3.10;;;;;;;;;;6204807;23;20000;-83
2021/05/29 04:57:29;;;;;;;3.45;3.15;;;;;;;;;;6232598;23;20057;-83
2021/05/29 04:59:55;;;;;;;5.78;3.22;;;;;;;;;;6233129;23;20423;-83
2021/05/29 05:02:20;;;;;;;5.40;3.17;;;;;;;;;;6208196;23;20000;-83
2021/05/29 05:04:46;;;;;;;4.22;3.30;;;;;;;;;;6232108;23;20001;-83
2021/05/29 05:07:12;;;;;;;4.53;3.25;;;;;;;;;;6232403;23;20008;-83
2021/05/29 05:09:37;;;;;;;6.22;3.58;;;;;;;;;;6230307;23;20086;-83
2021/05/29 05:12:03;;;;;;;5.57;3.35;;;;;;;;;;6229860;23;20020;-83
2021/05/29 05:14:28;;;;;;;6.72;3.53;;;;;;;;;;6230742;23;20000;-83
2021/05/29 05:16:54;;;;;;;7.68;3.28;;;;;;;;;;6230180;23;20008;-82
2021/05/29 05:19:20;;;;;;;4.63;3.00;;;;;;;;;;6231469;23;19996;-83
2021/05/29 05:21:45;;;;;;;5.57;2.92;;;;;;;;;;6233679;23;19997;-83
2021/05/29 05:24:12;;;;;;;5.53;3.55;;;;;;;;;;6231209;23;20000;-83
2021/05/29 05:26:37;;;;;;;4.18;2.95;;;;;;;;;;6232808;23;20003;-83
2021/05/29 05:29:03;;;;;;;5.25;3.20;;;;;;;;;;6230451;23;20020;-83
2021/05/29 05:31:29;;;;;;;9.98;3.92;;;;;;;;;;6232195;23;20015;-83
2021/05/29 05:33:56;;;;;;;5.43;3.78;;;;;;;;;;6232539;23;20027;-83
2021/05/29 05:36:22;;;;;;;6.13;3.83;;;;;;;;;;6233735;23;19997;-83
2021/05/29 05:38:49;;;;;;;4.40;3.60;;;;;;;;;;6206206;23;20005;-83
2021/05/29 05:41:16;;;;;;;4.30;3.90;;;;;;;;;;6231229;23;20028;-83
2021/05/29 05:43:44;;;;;;;5.10;4.03;;;;;;;;;;6231808;23;20032;-83
2021/05/29 05:46:13;;;;;;;5.75;4.00;;;;;;;;;;6232099;23;20024;-83
2021/05/29 05:48:38;;;;;;;6.47;4.10;;;;;;;;;;6231303;23;20067;-83
2021/05/29 05:51:04;;;;;;;6.07;3.92;;;;;;;;;;6231674;23;20001;-83
2021/05/29 05:53:30;;;;;;;4.53;3.75;;;;;;;;;;6205161;23;20027;-83
2021/05/29 05:56:03;;;;;;;5.47;3.78;;;;;;;;;;6203985;23;20011;-83
2021/05/29 05:58:31;;;;;;;4.88;3.95;;;;;;;;;;6231712;23;20035;-83
2021/05/29 06:00:59;;;;;;;5.68;3.97;;;;;;;;;;6232201;23;20028;-83
2021/05/29 06:03:24;;;;;;;4.70;4.20;;;;;;;;;;6232743;23;20001;-83
2021/05/29 06:05:50;;;;;;;6.07;4.00;;;;;;;;;;6206897;23;20009;-83
2021/05/29 06:08:17;;;;;;;5.25;3.63;;;;;;;;;;6233439;23;20039;-83
2021/05/29 06:10:50;;;;;;;6.57;4.38;;;;;;;;;;6231658;23;20002;-83
2021/05/29 06:13:33;;;;;;;7.20;4.35;;;;;;;;;;6181823;23;20064;-83
2021/05/29 06:21:18;;;;;;;4.43;4.03;;;;;;;;;;6234238;23;20064;-83
2021/05/29 06:23:44;;;;;;;6.20;4.35;;;;;;;;;;6205919;23;20369;-83
2021/05/29 06:26:09;;;;;;;6.68;4.07;;;;;;;;;;6233836;23;20079;-83
2021/05/29 06:28:35;;;;;;;6.97;3.90;;;;;;;;;;6232517;23;20000;-83
2021/05/29 06:31:00;;;;;;;4.60;4.20;;;;;;;;;;6206960;23;20012;-83
2021/05/29 06:33:26;;;;;;;5.47;4.30;;;;;;;;;;6206547;23;20012;-83
2021/05/29 06:35:51;;;;;;;7.55;4.20;;;;;;;;;;6206158;23;19993;-83
2021/05/29 06:38:17;;;;;;;6.30;4.00;;;;;;;;;;6229970;23;19997;-83
2021/05/29 06:40:42;;;;;;;5.30;3.95;;;;;;;;;;6231393;23;20470;-83
2021/05/29 06:43:08;;;;;;;5.55;4.05;;;;;;;;;;6203667;23;20015;-83
2021/05/29 06:45:33;;;;;;;10.10;4.05;;;;;;;;;;6231525;23;20370;-83
2021/05/29 06:48:01;;;;;;;4.95;4.28;;;;;;;;;;6232579;23;20054;-83
2021/05/29 06:50:27;;;;;;;5.53;4.40;;;;;;;;;;6233071;23;19996;-83
2021/05/29 06:52:55;;;;;;;5.20;4.30;;;;;;;;;;6232596;23;20053;-83
2021/05/29 07:00:49;;;;;;;5.70;4.60;;;;;;;;;;6230672;23;20016;-83
2021/05/29 07:03:14;;;;;;;8.43;4.25;;;;;;;;;;6202600;23;20059;-83
2021/05/29 07:05:40;;;;;;;5.55;4.72;;;;;;;;;;6205252;23;20064;-83
2021/05/29 07:08:05;;;;;;;5.80;4.75;;;;;;;;;;6230360;23;20000;-83
2021/05/29 07:10:31;;;;;;;6.35;4.38;;;;;;;;;;6204651;23;20007;-83
2021/05/29 07:12:56;;;;;;;6.72;4.63;;;;;;;;;;6205476;23;20000;-83
2021/05/29 07:15:27;;;;;;;6.45;5.00;;;;;;;;;;6233105;23;19993;-83
2021/05/29 07:17:56;;;;;;;;;;;;;;;;;;6234247;23;20007;-83
2021/05/29 07:20:21;;;;;;;6.55;4.53;;;;;;;;;;6233886;23;19978;-83
2021/05/29 07:22:50;;;;;;;5.50;3.97;;;;;;;;;;6205774;23;20031;-83
2021/05/29 07:25:16;;;;;;;7.18;5.10;;;;;;;;;;6231988;23;20000;-83
2021/05/29 07:27:41;;;;;;;5.47;4.70;;;;;;;;;;6231501;23;19999;-83
2021/05/29 07:30:08;;;;;;;7.30;4.65;;;;;;;;;;6231822;23;20043;-83
2021/05/29 07:32:35;;;;;;;6.47;4.75;;;;;;;;;;6204694;23;20084;-83
2021/05/29 07:35:01;;;;;;;6.45;5.00;;;;;;;;;;6230176;23;20000;-83
2021/05/29 07:37:27;;;;;;;6.30;4.88;;;;;;;;;;6203887;23;20050;-83
2021/05/29 07:39:54;;;;;;;7.30;4.70;;;;;;;;;;6230829;23;20449;-83
2021/05/29 07:42:19;;;;;;;5.93;4.78;;;;;;;;;;6231454;23;20003;-83
2021/05/29 07:44:45;;;;;;;5.38;4.72;;;;;;;;;;6203826;23;20005;-83
2021/05/29 07:47:11;;;;;;;5.93;5.32;;;;;;;;;;6231094;23;20020;-83
2021/05/29 07:49:37;;;;;;;6.47;5.43;;;;;;;;;;6181161;23;20008;-83
2021/05/29 07:52:03;;;;;;;5.70;5.20;;;;;;;;;;6232099;23;20453;-83
2021/05/29 07:54:31;;;;;;;5.88;5.28;;;;;;;;;;6205865;23;20032;-83
2021/05/29 07:56:58;;;;;;;6.45;5.78;;;;;;;;;;6230035;23;20023;-83
2021/05/29 07:59:26;;;;;;;5.93;5.03;;;;;;;;;;6198831;23;20004;-79
2021/05/29 08:01:51;;;;;;;6.65;5.00;;;;;;;;;;6215287;23;20001;-79
2021/05/29 08:04:17;;;;;;;6.13;4.90;;;;;;;;;;6214636;23;20079;-80
2021/05/29 08:06:44;;;;;;;6.35;5.38;;;;;;;;;;6215039;23;20055;-79
2021/05/29 08:09:10;;;;;;;5.43;4.93;;;;;;;;;;6216301;23;19997;-80
2021/05/29 08:11:38;;;;;;;6.43;5.20;;;;;;;;;;6195821;23;20008;-80
2021/05/29 08:14:06;;;;;;;6.13;5.53;;;;;;;;;;6197987;23;20015;-80
2021/05/29 08:16:32;;;;;;;9.77;5.47;;;;;;;;;;6196878;23;20023;-80
2021/05/29 08:18:57;;;;;;;8.50;5.55;;;;;;;;;;6197504;23;20396;-81
2021/05/29 08:21:23;;;;;;;8.15;4.93;;;;;;;;;;6195516;23;20004;-80
2021/05/29 08:23:49;;;;;;;7.03;5.65;;;;;;;;;;6223304;23;20427;-80
2021/05/29 08:26:15;;;;;;;7.95;5.95;;;;;;;;;;6198639;23;20060;-81
2021/05/29 08:28:44;;;;;;;7.07;5.25;;;;;;;;;;6229558;23;20016;-81
2021/05/29 08:31:10;;;;;;;6.40;5.78;;;;;;;;;;6227311;23;20028;-81
2021/05/29 08:33:36;;;;;;;5.93;5.25;;;;;;;;;;6228390;23;20003;-80
2021/05/29 08:36:03;;;;;;;7.90;5.53;;;;;;;;;;6230161;23;19992;-81
2021/05/29 08:38:29;;;;;;;8.70;5.63;;;;;;;;;;6230284;23;20019;-81
2021/05/29 08:40:54;;;;;;;8.15;5.65;;;;;;;;;;6230215;23;20027;-81
2021/05/29 08:43:20;;;;;;;6.63;5.35;;;;;;;;;;6228926;23;20005;-81
2021/05/29 08:45:48;;;;;;;6.93;5.55;;;;;;;;;;6233429;23;20058;-81
2021/05/29 08:48:16;;;;;;;6.00;5.45;;;;;;;;;;6208034;23;20060;-81
2021/05/29 08:51:12;;;;;;;7.68;5.43;;;;;;;;;;6233767;23;20011;-82
2021/05/29 08:53:32;;;;;;;8.63;5.95;;;;;;;;;;6231907;23;19997;-81
2021/05/29 08:55:58;;;;;;;6.60;5.90;;;;;;;;;;6182464;23;20010;-81
2021/05/29 08:58:29;;;;;;;7.35;5.40;;;;;;;;;;6233734;23;20004;-81
2021/05/29 09:00:58;;;;;;;5.85;5.25;;;;;;;;;;6232025;23;20055;-81
2021/05/29 09:03:24;;;;;;;6.40;5.72;;;;;;;;;;6230502;23;20008;-81
2021/05/29 09:05:53;;;;;;;6.72;5.60;;;;;;;;;;6231092;23;20005;-81
2021/05/29 09:08:23;;;;;;;7.10;5.50;;;;;;;;;;6232520;23;19996;-81
2021/05/29 09:10:55;;;;;;;9.53;6.03;;;;;;;;;;6233086;23;20001;-81
2021/05/29 09:13:28;;;;;;;9.10;5.40;;;;;;;;;;6233872;23;20052;-81
2021/05/29 09:16:07;;;;;;;7.68;5.50;;;;;;;;;;6208086;23;19992;-81
2021/05/29 09:18:57;;;;;;;6.78;5.97;;;;;;;;;;6234486;23;19997;-81
2021/05/29 09:21:33;;;;;;;7.55;5.85;;;;;;;;;;6233817;23;19997;-81
2021/05/29 09:24:02;;;;;;;9.45;6.22;;;;;;;;;;6232839;23;19996;-81
2021/05/29 09:26:46;;;;;;;7.55;6.20;;;;;;;;;;6232865;23;20001;-81
2021/05/29 09:29:22;;;;;;;7.25;6.20;;;;;;;;;;6234000;23;20047;-81
2021/05/29 09:32:10;;;;;;;9.63;7.53;;;;;;;;;;6234927;23;20008;-81
2021/05/29 09:34:51;;;;;;;7.50;6.80;;;;;;;;;;6210111;23;19996;-82
2021/05/29 09:37:27;;;;;;;10.48;6.13;;;;;;;;;;6235831;23;20000;-81
2021/05/29 09:39:59;;;;;;;8.75;6.25;;;;;;;;;;6229319;23;20000;-80
2021/05/29 09:42:37;;;;;;;9.93;6.70;;;;;;;;;;6228137;23;20004;-81
2021/05/29 09:45:23;;;;;;;8.15;6.78;;;;;;;;;;6230786;23;20001;-81
2021/05/29 09:48:17;;;;;;;8.25;5.82;;;;;;;;;;6230206;23;20054;-80
2021/05/29 09:51:10;;;;;;;7.45;6.35;;;;;;;;;;6202493;23;19997;-81
2021/05/29 09:53:40;;;;;;;8.32;6.78;;;;;;;;;;6202071;23;20000;-80
2021/05/29 09:56:08;;;;;;;9.02;7.03;;;;;;;;;;6226531;23;20464;-80
2021/05/29 09:58:50;;;;;;;7.78;6.80;;;;;;;;;;6228459;23;20079;-81
2021/05/29 10:01:50;;;;;;;7.70;6.35;;;;;;;;;;6224981;23;20502;-80
2021/05/29 10:07:06;;;;;;;8.75;6.18;;;;;;;;;;6075722;23;20019;-80
2021/05/29 10:09:32;;;;;;;9.82;6.22;;;;;;;;;;6073888;23;20009;-80
2021/05/29 10:12:01;;;;;;;5.75;5.05;;;;;;;;;;6074069;23;20002;-80
2021/05/29 10:14:30;;;;;;;7.88;6.82;;;;;;;;;;6075069;23;20003;-81
2021/05/29 10:17:00;;;;;;;9.57;8.60;;;;;;;;;;6074619;23;20134;-80
2021/05/29 10:19:34;;;;;;;10.60;6.75;;;;;;;;;;6071093;23;20007;-79
2021/05/29 10:22:05;;;;;;;8.57;7.68;;;;;;;;;;6050982;23;20034;-80
2021/05/29 10:24:31;;;;;;;7.30;6.60;;;;;;;;;;6075696;23;20003;-80
2021/05/29 10:26:57;;;;;;;5.95;5.45;;;;;;;;;;6080926;23;20003;-81
2021/05/29 10:29:27;;;;;;;6.07;5.47;;;;;;;;;;6077391;23;20042;-80
2021/05/29 10:32:11;;;;;;;6.10;5.50;;;;;;;;;;6078268;23;20058;-80
2021/05/29 10:35:06;;;;;;;7.05;5.90;;;;;;;;;;6062229;23;20087;-81
2021/05/29 10:37:40;;;;;;;10.50;6.32;;;;;;;;;;6089155;23;20035;-81
2021/05/29 10:40:42;;;;;;;10.60;8.15;;;;;;;;;;6161062;23;20004;-81
2021/05/29 10:43:19;;;;;;;9.93;7.18;;;;;;;;;;6085727;23;20009;-81
2021/05/29 10:46:38;;;;;;;9.05;6.82;;;;;;;;;;6086056;23;20007;-81
2021/05/29 10:49:09;;;;;;;8.77;6.20;;;;;;;;;;6085332;23;20055;-80
2021/05/29 10:51:38;;;;;;;10.80;7.03;;;;;;;;;;6090942;23;20014;-81
2021/05/29 10:54:13;;;;;;;8.63;5.90;;;;;;;;;;6067001;23;20010;-81
2021/05/29 10:56:45;;;;;;;8.20;6.28;;;;;;;;;;6045998;23;20003;-81
2021/05/29 10:59:19;;;;;;;6.63;5.93;;;;;;;;;;6092968;23;20133;-81
2021/05/29 11:02:05;;;;;;;8.70;6.30;;;;;;;;;;6093076;23;20023;-81
2021/05/29 11:04:54;;;;;;;9.32;7.03;;;;;;;;;;6007307;24;20008;-82
2021/05/29 11:07:41;;;;;;;7.97;7.22;;;;;;;;;;6007395;23;20495;-81
2021/05/29 11:10:30;;;;;;;6.95;6.03;;;;;;;;;;5955756;24;20056;-82
2021/05/29 11:13:00;;;;;;;7.35;5.68;;;;;;;;;;5979502;24;19992;-81
2021/05/29 11:16:01;;;;;;;7.05;6.15;;;;;;;;;;5958216;24;20029;-81
2021/05/29 11:18:29;;;;;;;8.02;5.55;;;;;;;;;;5992538;23;20004;-81
2021/05/29 11:21:09;;;;;;;8.63;5.60;;;;;;;;;;6059245;23;19999;-81
2021/05/29 11:23:35;;;;;;;8.02;4.85;;;;;;;;;;6031684;23;20012;-81
2021/05/29 11:26:00;;;;;;;6.75;5.82;;;;;;;;;;6026641;23;20168;-80
2021/05/29 11:28:32;;;;;;;6.60;5.95;;;;;;;;;;6026274;23;20039;-81
2021/05/29 11:30:58;;;;;;;8.02;5.40;;;;;;;;;;6041543;23;20499;-81
2021/05/29 11:33:24;;;;;;;5.57;4.40;;;;;;;;;;6015559;23;20063;-82
2021/05/29 11:35:50;;;;;;;6.75;4.57;;;;;;;;;;6036152;23;20338;-81
2021/05/29 11:38:40;;;;;;;4.43;4.03;;;;;;;;;;6036126;23;20007;-82
2021/05/29 11:41:19;;;;;;;5.18;4.00;;;;;;;;;;6082336;23;20001;-82
2021/05/29 11:44:06;;;;;;;7.43;4.10;;;;;;;;;;6182210;23;20008;-82
2021/05/29 11:46:32;;;;;;;4.70;3.10;;;;;;;;;;6189999;23;20048;-84
2021/05/29 11:51:46;;;;;;;2.97;2.53;;;;;;;;;;6217484;22;20032;-86
2021/05/29 11:57:17;;;;;;;4.13;2.70;;;;;;;;;;6213002;22;20480;-87
2021/05/29 11:59:43;;;;;;;3.30;1.92;;;;;;;;;;6188377;23;20044;-87
2021/05/29 12:02:08;;;;;;;2.10;1.70;;;;;;;;;;6213731;23;19996;-88
2021/05/29 12:04:37;;;;;;;3.88;1.98;;;;;;;;;;6187977;23;20001;-88
2021/05/29 12:07:03;;;;;;;2.42;1.98;;;;;;;;;;6187686;23;20501;-89
2021/05/29 12:09:31;;;;;;;3.38;1.80;;;;;;;;;;6188533;23;20083;-90
2021/05/29 12:11:59;;;;;;;3.28;2.00;;;;;;;;;;6188779;23;20007;-91
2021/05/29 12:14:30;;;;;;;2.28;1.42;;;;;;;;;;6189107;23;20048;-90
2021/05/29 12:17:01;;;;;;;3.47;1.55;;;;;;;;;;6189379;23;20000;-91
2021/05/29 12:19:39;;;;;;;2.38;1.88;;;;;;;;;;6215515;23;20051;-89
2021/05/29 12:22:11;;;;;;;5.22;2.10;;;;;;;;;;6189290;23;20004;-90
2021/05/29 12:24:49;;;;;;;3.88;2.00;;;;;;;;;;6214923;23;20031;-90
2021/05/29 12:27:18;;;;;;;3.90;2.30;;;;;;;;;;6215474;23;20035;-91
2021/05/29 12:29:44;;;;;;;4.57;2.10;;;;;;;;;;6189075;23;20027;-90
2021/05/29 12:32:39;;;;;;;3.35;1.80;;;;;;;;;;6188999;23;20442;-90
2021/05/29 12:35:08;;;;;;;3.05;1.65;;;;;;;;;;6182974;23;20043;-90
2021/05/29 12:37:35;;;;;;;2.40;1.70;;;;;;;;;;6215026;23;20071;-91
2021/05/29 12:40:12;;;;;;;6.35;2.22;;;;;;;;;;6187788;23;20009;-90
2021/05/29 12:42:44;;;;;;;1.80;1.60;;;;;;;;;;6185220;23;20007;-90
2021/05/29 12:45:26;;;;;;;4.00;1.60;;;;;;;;;;6215937;23;20000;-92
2021/05/29 12:47:59;;;;;;;2.83;1.90;;;;;;;;;;6188613;23;20039;-89
2021/05/29 12:50:30;;;;;;;2.03;1.92;;;;;;;;;;6216141;23;20072;-90
2021/05/29 12:53:15;;;;;;;;;;;;;;;;;;6190064;23;20051;-91
2021/05/29 12:55:43;;;;;;;2.45;1.70;;;;;;;;;;6215553;23;19978;-90
2021/05/29 12:58:15;;;;;;;3.13;1.80;;;;;;;;;;6189107;23;20123;-91
2021/05/29 13:00:58;;;;;;;3.55;1.52;;;;;;;;;;6189276;23;20338;-89
2021/05/29 13:09:38;;;;;;;6.88;1.80;;;;;;;;;;6215472;23;20088;-91
2021/05/29 13:12:18;;;;;;;2.35;1.67;;;;;;;;;;6189006;23;20004;-91
2021/05/29 13:14:46;;;;;;;2.93;1.60;;;;;;;;;;6215863;23;19996;-90
2021/05/29 13:17:27;;;;;;;6.45;1.67;;;;;;;;;;6215934;23;20000;-90
2021/05/29 13:20:00;;;;;;;3.45;1.80;;;;;;;;;;6188922;23;19997;-84
2021/05/29 13:22:37;;;;;;;3.58;1.48;;;;;;;;;;6216181;23;20331;-85
2021/05/29 13:25:12;;;;;;;2.38;1.60;;;;;;;;;;6188780;23;20063;-84
2021/05/29 13:27:44;;;;;;;3.22;1.90;;;;;;;;;;6216104;23;20000;-84
2021/05/29 13:30:14;;;;;;;3.38;1.73;;;;;;;;;;6215673;23;20007;-84
2021/05/29 13:32:40;;;;;;;5.97;2.10;;;;;;;;;;6216172;23;20000;-84
2021/05/29 13:35:07;;;;;;;4.18;2.00;;;;;;;;;;6215785;23;20231;-84
2021/05/29 13:37:33;;;;;;;2.45;1.60;;;;;;;;;;6216142;23;20362;-84
2021/05/29 13:39:59;;;;;;;2.17;1.30;;;;;;;;;;6188835;23;20011;-84
2021/05/29 13:42:24;;;;;;;4.97;1.50;;;;;;;;;;6215610;23;20386;-85
2021/05/29 13:44:50;;;;;;;2.47;1.65;;;;;;;;;;6215392;23;20368;-84
2021/05/29 13:47:15;;;;;;;3.53;1.63;;;;;;;;;;6188705;23;20011;-84
2021/05/29 13:49:42;;;;;;;4.03;1.70;;;;;;;;;;6214696;23;20350;-84
2021/05/29 13:52:07;;;;;;;1.85;1.30;;;;;;;;;;6215286;23;19996;-85
2021/05/29 13:54:33;;;;;;;4.72;1.42;;;;;;;;;;6215498;23;19997;-84
2021/05/29 13:56:58;;;;;;;3.58;1.23;;;;;;;;;;6207358;23;20071;-84
2021/05/29 13:59:24;;;;;;;2.15;1.60;;;;;;;;;;6215857;23;20009;-84
2021/05/29 14:01:50;;;;;;;3.08;1.80;;;;;;;;;;6213706;23;20004;-84
2021/05/29 14:04:17;;;;;;;2.17;1.80;;;;;;;;;;6215835;23;20027;-84
2021/05/29 14:06:43;;;;;;;1.42;1.25;;;;;;;;;;6215439;23;20004;-85
2021/05/29 14:09:09;;;;;;;4.18;1.65;;;;;;;;;;6215157;23;20004;-85
2021/05/29 14:11:39;;;;;;;3.17;1.48;;;;;;;;;;6215757;23;19996;-84
2021/05/29 14:14:06;;;;;;;2.57;1.77;;;;;;;;;;6215333;23;20016;-86
2021/05/29 14:16:32;;;;;;;1.73;1.45;;;;;;;;;;6215438;23;19993;-84
2021/05/29 14:18:58;;;;;;;2.50;1.35;;;;;;;;;;6214931;23;20047;-85
2021/05/29 14:21:24;;;;;;;2.33;1.30;;;;;;;;;;6213718;23;20000;-85
2021/05/29 14:23:49;;;;;;;2.03;1.20;;;;;;;;;;6214064;23;20135;-85
2021/05/29 14:26:15;;;;;;;1.77;1.38;;;;;;;;;;6215430;23;20036;-85
2021/05/29 14:28:41;;;;;;;1.52;1.42;;;;;;;;;;6215657;23;20012;-84
2021/05/29 14:31:07;;;;;;;2.97;1.33;;;;;;;;;;6212897;23;20350;-84
2021/05/29 14:33:34;;;;;;;1.63;1.20;;;;;;;;;;6214033;23;19997;-84
2021/05/29 14:36:02;;;;;;;2.72;1.45;;;;;;;;;;6215158;23;20075;-84
2021/05/29 14:38:27;;;;;;;2.08;1.38;;;;;;;;;;6213866;23;20028;-84
2021/05/29 14:40:53;;;;;;;5.20;1.33;;;;;;;;;;6213519;23;20007;-85
2021/05/29 14:43:18;;;;;;;1.63;1.35;;;;;;;;;;6215288;23;19997;-84
2021/05/29 14:45:56;;;;;;;1.40;1.30;;;;;;;;;;6212022;23;20027;-84
2021/05/29 14:48:22;;;;;;;3.00;1.23;;;;;;;;;;6212084;23;20009;-85
2021/05/29 14:51:15;;;;;;;2.60;1.33;;;;;;;;;;6214139;23;20050;-85
2021/05/29 14:53:39;;;;;;;2.10;1.63;;;;;;;;;;6214373;23;20435;-85
2021/05/29 14:56:04;;;;;;;3.95;1.50;;;;;;;;;;6213173;23;20063;-85
2021/05/29 14:58:30;;;;;;;1.80;1.30;;;;;;;;;;6213665;23;20008;-84
2021/05/29 15:00:55;;;;;;;2.75;1.20;;;;;;;;;;6187632;23;20008;-86
2021/05/29 15:03:21;;;;;;;2.70;1.20;;;;;;;;;;6213888;23;20001;-84
2021/05/29 15:05:46;;;;;;;2.13;1.27;;;;;;;;;;6213269;23;20004;-84
2021/05/29 15:08:12;;;;;;;2.17;1.40;;;;;;;;;;6214418;23;20012;-84
2021/05/29 15:10:37;;;;;;;2.38;1.42;;;;;;;;;;6214547;23;20004;-84
2021/05/29 15:13:03;;;;;;;2.35;1.40;;;;;;;;;;6214572;23;20051;-84
2021/05/29 15:15:29;;;;;;;4.47;1.30;;;;;;;;;;6187090;23;20084;-85
2021/05/29 15:17:54;;;;;;;2.35;1.45;;;;;;;;;;6214050;23;19997;-84
2021/05/29 15:20:20;;;;;;;1.77;1.40;;;;;;;;;;6184577;23;20378;-84
2021/05/29 15:22:46;;;;;;;3.65;1.20;;;;;;;;;;6186657;23;20015;-84